createdAt,value
2019-02-09T00:00:24.065Z,69.06
2019-02-09T00:01:24.046Z,69.17
2019-02-09T00:02:24.026Z,69.58
2019-02-09T00:03:24.015Z,69.37
2019-02-09T00:04:24.005Z,68.78
2019-02-09T00:05:24.021Z,68.54
2019-02-09T00:06:23.986Z,68.78
2019-02-09T00:07:23.985Z,68.48
2019-02-09T00:08:23.965Z,68.58
2019-02-09T00:09:23.944Z,68.78
2019-02-09T00:10:23.938Z,68.68
2019-02-09T00:11:23.952Z,68.06
2019-02-09T00:12:23.916Z,68.37
2019-02-09T00:13:23.901Z,68.58
2019-02-09T00:14:23.898Z,68.27
2019-02-09T00:15:23.884Z,68.16
2019-02-09T00:16:23.893Z,67.82
2019-02-09T00:17:23.865Z,67.72
2019-02-09T00:18:23.850Z,67.82
2019-02-09T00:19:23.842Z,68.03
2019-02-09T00:20:23.828Z,68.03
2019-02-09T00:21:23.834Z,68.03
2019-02-09T00:22:23.801Z,67.51
2019-02-09T00:23:23.792Z,67.61
2019-02-09T00:24:23.781Z,67.93
2019-02-09T00:25:23.771Z,67.51
2019-02-09T00:26:23.778Z,67.51
2019-02-09T00:27:23.743Z,67.51
2019-02-09T00:28:23.742Z,67.10
2019-02-09T00:29:23.724Z,67.30
2019-02-09T00:30:23.721Z,67.51
2019-02-09T00:31:23.724Z,67.41
2019-02-09T00:32:23.705Z,67.54
2019-02-09T00:33:23.683Z,67.21
2019-02-09T00:34:23.674Z,67.21
2019-02-09T00:35:23.663Z,67.00
2019-02-09T00:36:23.664Z,66.89
2019-02-09T00:37:23.637Z,66.89
2019-02-09T00:38:23.628Z,66.79
2019-02-09T00:39:23.621Z,66.79
2019-02-09T00:40:23.612Z,66.38
2019-02-09T00:41:23.611Z,66.07
2019-02-09T00:42:23.583Z,66.07
2019-02-09T00:43:23.570Z,66.27
2019-02-09T00:44:23.559Z,66.58
2019-02-09T00:45:23.551Z,66.48
2019-02-09T00:46:23.555Z,66.58
2019-02-09T00:47:23.525Z,66.48
2019-02-09T00:48:23.529Z,66.48
2019-02-09T00:49:23.515Z,66.38
2019-02-09T00:50:23.492Z,66.58
2019-02-09T00:51:23.496Z,66.07
2019-02-09T00:52:23.473Z,65.97
2019-02-09T00:53:23.457Z,65.86
2019-02-09T00:54:23.449Z,65.97
2019-02-09T00:55:23.434Z,66.07
2019-02-09T00:56:23.435Z,65.97
2019-02-09T00:57:23.412Z,65.76
2019-02-09T00:58:23.399Z,66.17
2019-02-09T00:59:23.394Z,66.27
2019-02-09T01:00:23.379Z,66.38
2019-02-09T01:01:23.401Z,66.27
2019-02-09T01:02:23.360Z,66.17
2019-02-09T01:03:23.344Z,65.86
2019-02-09T01:04:23.331Z,65.97
2019-02-09T01:05:23.324Z,65.66
2019-02-09T01:06:23.315Z,65.86
2019-02-09T01:07:23.313Z,65.55
2019-02-09T01:08:23.293Z,65.66
2019-02-09T01:09:23.283Z,65.14
2019-02-09T01:10:23.265Z,65.24
2019-02-09T01:11:23.253Z,65.03
2019-02-09T01:12:23.261Z,65.14
2019-02-09T01:13:23.227Z,65.45
2019-02-09T01:14:23.221Z,65.24
2019-02-09T01:15:23.209Z,64.93
2019-02-09T01:16:23.196Z,65.03
2019-02-09T01:17:23.209Z,64.93
2019-02-09T01:18:23.170Z,65.34
2019-02-09T01:19:23.162Z,65.24
2019-02-09T01:20:23.153Z,65.03
2019-02-09T01:21:23.146Z,64.93
2019-02-09T01:22:23.159Z,64.93
2019-02-09T01:23:23.138Z,65.55
2019-02-09T01:24:23.146Z,65.69
2019-02-09T01:25:23.099Z,65.14
2019-02-09T01:26:23.082Z,65.03
2019-02-09T01:27:23.093Z,64.86
2019-02-09T01:28:23.057Z,65.14
2019-02-09T01:29:23.056Z,65.17
2019-02-09T01:30:23.060Z,65.24
2019-02-09T01:31:23.030Z,64.45
2019-02-09T01:32:23.043Z,64.45
2019-02-09T01:33:23.003Z,65.03
2019-02-09T01:34:22.997Z,64.62
2019-02-09T01:35:22.981Z,64.34
2019-02-09T01:36:22.970Z,64.52
2019-02-09T01:37:22.986Z,64.83
2019-02-09T01:38:22.955Z,65.06
2019-02-09T01:39:22.935Z,64.42
2019-02-09T01:40:22.930Z,65.24
2019-02-09T01:41:22.916Z,64.42
2019-02-09T01:42:22.922Z,64.52
2019-02-09T01:43:22.890Z,64.52
2019-02-09T01:44:22.883Z,64.42
2019-02-09T01:45:22.873Z,64.42
2019-02-09T01:46:22.859Z,64.42
2019-02-09T01:47:22.869Z,64.52
2019-02-09T01:48:22.835Z,64.52
2019-02-09T01:49:22.837Z,64.42
2019-02-09T01:50:22.845Z,64.34
2019-02-09T01:51:22.798Z,64.52
2019-02-09T01:52:22.810Z,64.52
2019-02-09T01:53:22.775Z,64.11
2019-02-09T01:54:22.767Z,64.34
2019-02-09T01:55:22.769Z,64.31
2019-02-09T01:56:22.751Z,64.31
2019-02-09T01:57:22.778Z,63.82
2019-02-09T01:58:22.721Z,63.72
2019-02-09T01:59:22.710Z,63.82
2019-02-09T02:00:22.701Z,64.03
2019-02-09T02:01:22.694Z,63.93
2019-02-09T02:02:22.677Z,63.82
2019-02-09T02:03:22.679Z,64.52
2019-02-09T02:04:22.663Z,64.14
2019-02-09T02:05:22.643Z,64.03
2019-02-09T02:06:22.637Z,64.24
2019-02-09T02:07:22.621Z,64.11
2019-02-09T02:08:22.632Z,64.03
2019-02-09T02:09:22.644Z,64.03
2019-02-09T02:10:22.586Z,64.14
2019-02-09T02:11:22.581Z,63.62
2019-02-09T02:12:22.563Z,63.93
2019-02-09T02:13:22.574Z,64.14
2019-02-09T02:14:22.541Z,64.14
2019-02-09T02:15:22.530Z,64.14
2019-02-09T02:16:22.520Z,64.14
2019-02-09T02:17:22.507Z,64.45
2019-02-09T02:18:22.532Z,64.24
2019-02-09T02:19:22.487Z,64.45
2019-02-09T02:20:22.475Z,64.24
2019-02-09T02:21:22.464Z,64.24
2019-02-09T02:22:22.456Z,64.86
2019-02-09T02:23:22.453Z,64.55
2019-02-09T02:24:22.459Z,64.76
2019-02-09T02:25:23.702Z,65.06
2019-02-09T02:26:22.417Z,64.55
2019-02-09T02:27:22.396Z,64.55
2019-02-09T02:28:22.389Z,64.34
2019-02-09T02:29:22.394Z,64.34
2019-02-09T02:30:23.262Z,64.45
2019-02-09T02:31:22.354Z,64.65
2019-02-09T02:32:22.344Z,64.45
2019-02-09T02:33:22.330Z,64.45
2019-02-09T02:34:22.343Z,64.27
2019-02-09T02:35:22.306Z,64.45
2019-02-09T02:36:22.301Z,64.34
2019-02-09T02:37:22.290Z,64.68
2019-02-09T02:38:22.272Z,64.65
2019-02-09T02:39:22.286Z,64.55
2019-02-09T02:40:22.252Z,64.45
2019-02-09T02:41:22.246Z,64.34
2019-02-09T02:42:22.226Z,64.24
2019-02-09T02:43:22.216Z,64.55
2019-02-09T02:44:22.228Z,64.55
2019-02-09T02:45:22.194Z,64.34
2019-02-09T02:46:22.190Z,64.24
2019-02-09T02:47:22.174Z,64.24
2019-02-09T02:48:22.162Z,64.14
2019-02-09T02:49:22.174Z,64.03
2019-02-09T02:50:22.143Z,64.03
2019-02-09T02:51:22.130Z,63.82
2019-02-09T02:52:22.124Z,64.03
2019-02-09T02:53:22.107Z,63.72
2019-02-09T02:54:22.143Z,64.24
2019-02-09T02:55:22.084Z,63.82
2019-02-09T02:56:22.076Z,63.21
2019-02-09T02:57:22.071Z,63.21
2019-02-09T02:58:22.052Z,63.00
2019-02-09T02:59:22.040Z,63.31
2019-02-09T03:00:31.029Z,63.31
2019-02-09T03:01:23.035Z,62.59
2019-02-09T03:02:22.005Z,62.69
2019-02-09T03:03:21.997Z,63.31
2019-02-09T03:04:21.986Z,62.48
2019-02-09T03:05:22.018Z,62.69
2019-02-09T03:06:21.964Z,62.59
2019-02-09T03:07:21.952Z,63.00
2019-02-09T03:08:21.940Z,63.00
2019-02-09T03:09:21.928Z,63.10
2019-02-09T03:10:21.946Z,62.66
2019-02-09T03:11:21.918Z,62.46
2019-02-09T03:12:21.896Z,62.15
2019-02-09T03:13:21.892Z,62.07
2019-02-09T03:14:21.872Z,61.97
2019-02-09T03:15:21.883Z,62.25
2019-02-09T03:16:21.853Z,61.63
2019-02-09T03:17:21.842Z,61.83
2019-02-09T03:18:21.831Z,61.66
2019-02-09T03:19:21.818Z,61.42
2019-02-09T03:20:21.820Z,61.66
2019-02-09T03:21:22.079Z,61.63
2019-02-09T03:22:21.780Z,61.42
2019-02-09T03:23:21.783Z,61.87
2019-02-09T03:24:21.762Z,62.07
2019-02-09T03:25:21.779Z,61.63
2019-02-09T03:26:21.746Z,61.94
2019-02-09T03:27:21.734Z,61.63
2019-02-09T03:28:21.724Z,61.63
2019-02-09T03:29:21.703Z,61.42
2019-02-09T03:30:21.714Z,61.32
2019-02-09T03:31:21.690Z,61.52
2019-02-09T03:32:21.676Z,61.52
2019-02-09T03:33:21.675Z,61.63
2019-02-09T03:34:21.655Z,61.45
2019-02-09T03:35:21.660Z,61.66
2019-02-09T03:36:21.631Z,61.55
2019-02-09T03:37:21.627Z,61.55
2019-02-09T03:38:21.611Z,61.14
2019-02-09T03:39:21.598Z,61.55
2019-02-09T03:40:21.607Z,61.22
2019-02-09T03:41:21.569Z,61.32
2019-02-09T03:42:21.559Z,61.11
2019-02-09T03:43:21.551Z,61.52
2019-02-09T03:44:21.542Z,60.91
2019-02-09T03:45:21.555Z,60.60
2019-02-09T03:46:21.519Z,61.01
2019-02-09T03:47:21.504Z,61.01
2019-02-09T03:48:21.493Z,61.11
2019-02-09T03:49:21.483Z,60.42
2019-02-09T03:50:21.487Z,60.31
2019-02-09T03:51:21.669Z,60.28
2019-02-09T03:52:21.459Z,60.80
2019-02-09T03:53:21.443Z,60.73
2019-02-09T03:54:21.431Z,60.60
2019-02-09T03:55:21.433Z,60.39
2019-02-09T03:56:21.408Z,60.28
2019-02-09T03:57:21.397Z,60.08
2019-02-09T03:58:21.391Z,60.08
2019-02-09T03:59:21.373Z,60.39
2019-02-09T04:00:21.460Z,59.88
2019-02-09T04:01:21.351Z,60.28
2019-02-09T04:02:21.340Z,59.67
2019-02-09T04:03:21.335Z,59.67
2019-02-09T04:04:21.311Z,59.05
2019-02-09T04:05:21.306Z,58.94
2019-02-09T04:06:21.311Z,58.92
2019-02-09T04:07:21.291Z,58.84
2019-02-09T04:08:21.281Z,58.94
2019-02-09T04:09:21.263Z,59.02
2019-02-09T04:10:21.256Z,58.53
2019-02-09T04:11:21.259Z,59.05
2019-02-09T04:12:21.235Z,59.02
2019-02-09T04:13:21.219Z,59.23
2019-02-09T04:14:21.203Z,58.30
2019-02-09T04:15:21.206Z,58.92
2019-02-09T04:16:21.215Z,58.20
2019-02-09T04:17:21.169Z,58.50
2019-02-09T04:18:21.162Z,58.30
2019-02-09T04:19:21.147Z,58.30
2019-02-09T04:20:21.138Z,58.50
2019-02-09T04:21:21.290Z,58.30
2019-02-09T04:22:21.123Z,57.99
2019-02-09T04:23:21.103Z,58.30
2019-02-09T04:24:21.095Z,58.09
2019-02-09T04:25:21.083Z,58.30
2019-02-09T04:26:21.088Z,57.78
2019-02-09T04:27:21.060Z,57.26
2019-02-09T04:28:21.049Z,57.17
2019-02-09T04:29:21.036Z,57.26
2019-02-09T04:30:21.038Z,57.47
2019-02-09T04:31:21.035Z,56.75
2019-02-09T04:32:21.005Z,57.55
2019-02-09T04:33:20.996Z,57.55
2019-02-09T04:34:20.979Z,56.41
2019-02-09T04:35:20.970Z,57.34
2019-02-09T04:36:20.983Z,56.62
2019-02-09T04:37:20.951Z,56.52
2019-02-09T04:38:20.937Z,56.83
2019-02-09T04:39:21.923Z,56.93
2019-02-09T04:40:20.911Z,56.93
2019-02-09T04:41:20.927Z,57.03
2019-02-09T04:42:20.886Z,57.03
2019-02-09T04:43:20.879Z,56.83
2019-02-09T04:44:20.864Z,57.03
2019-02-09T04:45:20.854Z,56.93
2019-02-09T04:46:20.844Z,57.14
2019-02-09T04:47:20.852Z,57.03
2019-02-09T04:48:20.822Z,56.73
2019-02-09T04:49:20.813Z,56.52
2019-02-09T04:50:20.798Z,56.49
2019-02-09T04:51:20.785Z,56.31
2019-02-09T04:52:20.804Z,56.00
2019-02-09T04:53:20.766Z,56.29
2019-02-09T04:54:20.754Z,56.29
2019-02-09T04:55:20.756Z,56.08
2019-02-09T04:56:20.728Z,56.18
2019-02-09T04:57:20.735Z,55.87
2019-02-09T04:58:20.706Z,55.98
2019-02-09T04:59:20.696Z,55.46
2019-02-09T05:00:20.684Z,55.66
2019-02-09T05:01:20.670Z,55.66
2019-02-09T05:02:20.699Z,55.46
2019-02-09T05:03:20.646Z,55.05
2019-02-09T05:04:20.637Z,55.15
2019-02-09T05:05:20.623Z,55.15
2019-02-09T05:06:20.612Z,55.05
2019-02-09T05:07:20.601Z,54.82
2019-02-09T05:08:20.608Z,54.92
2019-02-09T05:09:20.580Z,54.71
2019-02-09T05:10:20.567Z,55.02
2019-02-09T05:11:20.557Z,54.82
2019-02-09T05:12:20.548Z,54.51
2019-02-09T05:13:20.550Z,54.30
2019-02-09T05:14:20.522Z,54.41
2019-02-09T05:15:20.512Z,54.30
2019-02-09T05:16:20.496Z,54.28
2019-02-09T05:17:20.482Z,54.28
2019-02-09T05:18:20.488Z,54.10
2019-02-09T05:19:20.460Z,53.97
2019-02-09T05:20:20.454Z,54.51
2019-02-09T05:21:20.446Z,54.10
2019-02-09T05:22:20.428Z,53.99
2019-02-09T05:23:20.443Z,54.30
2019-02-09T05:24:20.413Z,54.17
2019-02-09T05:25:20.397Z,54.48
2019-02-09T05:26:20.378Z,54.28
2019-02-09T05:27:20.381Z,54.48
2019-02-09T05:28:20.362Z,54.28
2019-02-09T05:29:20.363Z,54.07
2019-02-09T05:30:20.339Z,54.48
2019-02-09T05:31:23.070Z,54.38
2019-02-09T05:32:20.316Z,55.00
2019-02-09T05:33:20.314Z,55.21
2019-02-09T05:34:20.311Z,54.61
2019-02-09T05:35:20.284Z,54.69
2019-02-09T05:36:20.274Z,54.69
2019-02-09T05:37:20.263Z,55.13
2019-02-09T05:38:20.241Z,54.90
2019-02-09T05:39:20.260Z,55.10
2019-02-09T05:40:20.233Z,55.00
2019-02-09T05:41:20.220Z,55.00
2019-02-09T05:42:20.204Z,55.10
2019-02-09T05:43:20.188Z,54.90
2019-02-09T05:44:20.183Z,55.62
2019-02-09T05:45:20.190Z,56.03
2019-02-09T05:46:20.175Z,56.65
2019-02-09T05:47:20.147Z,56.75
2019-02-09T05:48:20.155Z,56.65
2019-02-09T05:49:20.515Z,56.65
2019-02-09T05:50:20.109Z,57.26
2019-02-09T05:51:20.101Z,58.19
2019-02-09T05:52:20.087Z,58.42
2019-02-09T05:53:20.101Z,58.22
2019-02-09T05:54:20.063Z,58.32
2019-02-09T05:55:20.073Z,58.22
2019-02-09T05:56:20.044Z,58.63
2019-02-09T05:57:20.030Z,59.33
2019-02-09T05:58:20.132Z,58.73
2019-02-09T05:59:20.013Z,59.56
2019-02-09T06:00:20.001Z,59.25
2019-02-09T06:01:19.986Z,58.84
2019-02-09T06:02:19.971Z,58.63
2019-02-09T06:03:19.986Z,58.42
2019-02-09T06:04:19.964Z,58.81
2019-02-09T06:05:19.935Z,59.35
2019-02-09T06:06:19.925Z,59.14
2019-02-09T06:07:19.911Z,59.97
2019-02-09T06:08:19.929Z,59.86
2019-02-09T06:09:19.890Z,60.17
2019-02-09T06:10:19.892Z,60.17
2019-02-09T06:11:19.867Z,60.07
2019-02-09T06:12:19.862Z,59.77
2019-02-09T06:13:19.864Z,59.97
2019-02-09T06:14:19.835Z,60.17
2019-02-09T06:15:19.825Z,59.86
2019-02-09T06:16:19.816Z,60.49
2019-02-09T06:17:19.799Z,60.17
2019-02-09T06:18:19.816Z,60.69
2019-02-09T06:19:19.828Z,61.21
2019-02-09T06:20:19.767Z,61.61
2019-02-09T06:21:19.918Z,62.03
2019-02-09T06:22:19.748Z,63.19
2019-02-09T06:23:19.739Z,63.29
2019-02-09T06:24:19.747Z,63.60
2019-02-09T06:25:19.713Z,64.43
2019-02-09T06:26:19.695Z,64.32
2019-02-09T06:27:19.685Z,64.84
2019-02-09T06:28:19.675Z,65.05
2019-02-09T06:29:19.681Z,65.15
2019-02-09T06:30:19.652Z,65.98
2019-02-09T06:31:19.639Z,65.77
2019-02-09T06:32:19.629Z,66.11
2019-02-09T06:33:19.619Z,66.11
2019-02-09T06:34:19.625Z,65.80
2019-02-09T06:35:19.595Z,67.03
2019-02-09T06:36:19.580Z,67.35
2019-02-09T06:37:19.577Z,67.45
2019-02-09T06:38:19.559Z,67.24
2019-02-09T06:39:19.565Z,67.66
2019-02-09T06:40:19.549Z,67.76
2019-02-09T06:41:19.519Z,67.66
2019-02-09T06:42:19.514Z,68.07
2019-02-09T06:43:19.500Z,69.10
2019-02-09T06:44:19.505Z,69.20
2019-02-09T06:45:19.485Z,70.13
2019-02-09T06:46:19.473Z,69.31
2019-02-09T06:47:19.459Z,69.41
2019-02-09T06:48:19.441Z,69.31
2019-02-09T06:49:19.445Z,69.41
2019-02-09T06:50:19.420Z,69.41
2019-02-09T06:51:19.414Z,69.54
2019-02-09T06:52:19.397Z,69.82
2019-02-09T06:53:19.385Z,69.31
2019-02-09T06:54:19.388Z,69.24
2019-02-09T06:55:19.369Z,69.13
2019-02-09T06:56:19.353Z,69.54
2019-02-09T06:57:20.021Z,69.75
2019-02-09T06:58:19.322Z,69.65
2019-02-09T06:59:19.345Z,70.27
2019-02-09T07:00:19.305Z,69.75
2019-02-09T07:01:19.297Z,70.17
2019-02-09T07:02:19.287Z,69.24
2019-02-09T07:03:19.266Z,69.72
2019-02-09T07:04:19.261Z,69.44
2019-02-09T07:05:19.265Z,69.85
2019-02-09T07:06:19.230Z,69.54
2019-02-09T07:07:19.221Z,69.34
2019-02-09T07:08:19.213Z,69.96
2019-02-09T07:09:19.197Z,70.27
2019-02-09T07:10:19.214Z,69.82
2019-02-09T07:11:19.178Z,69.72
2019-02-09T07:12:19.171Z,70.54
2019-02-09T07:13:19.160Z,70.68
2019-02-09T07:14:19.147Z,71.09
2019-02-09T07:15:19.145Z,71.06
2019-02-09T07:16:19.111Z,71.61
2019-02-09T07:17:19.107Z,71.71
2019-02-09T07:18:19.091Z,72.02
2019-02-09T07:19:19.081Z,72.13
2019-02-09T07:20:19.087Z,72.13
2019-02-09T07:21:19.066Z,72.13
2019-02-09T07:22:19.047Z,72.23
2019-02-09T07:23:19.039Z,72.23
2019-02-09T07:24:19.035Z,72.23
2019-02-09T07:25:19.031Z,71.92
2019-02-09T07:26:18.998Z,72.44
2019-02-09T07:27:18.992Z,72.33
2019-02-09T07:28:18.976Z,72.33
2019-02-09T07:29:18.963Z,72.33
2019-02-09T07:30:18.974Z,72.95
2019-02-09T07:31:18.944Z,72.95
2019-02-09T07:32:18.936Z,72.85
2019-02-09T07:33:18.914Z,72.85
2019-02-09T07:34:18.914Z,73.05
2019-02-09T07:35:18.929Z,73.77
2019-02-09T07:36:18.915Z,74.60
2019-02-09T07:37:18.875Z,75.01
2019-02-09T07:38:18.870Z,75.01
2019-02-09T07:39:18.861Z,75.53
2019-02-09T07:40:18.862Z,75.01
2019-02-09T07:41:18.834Z,75.63
2019-02-09T07:42:18.822Z,75.43
2019-02-09T07:43:18.810Z,75.74
2019-02-09T07:44:18.796Z,75.74
2019-02-09T07:45:18.799Z,75.84
2019-02-09T07:46:18.796Z,75.74
2019-02-09T07:47:18.759Z,75.84
2019-02-09T07:48:18.750Z,75.53
2019-02-09T07:49:18.740Z,75.63
2019-02-09T07:50:18.730Z,76.25
2019-02-09T07:51:19.028Z,76.32
2019-02-09T07:52:18.706Z,76.25
2019-02-09T07:53:18.696Z,75.95
2019-02-09T07:54:18.681Z,76.98
2019-02-09T07:55:18.670Z,76.87
2019-02-09T07:56:18.688Z,77.35
2019-02-09T07:57:18.650Z,78.21
2019-02-09T07:58:18.636Z,77.80
2019-02-09T07:59:18.626Z,77.91
2019-02-09T08:00:18.614Z,78.73
2019-02-09T08:01:18.607Z,78.94
2019-02-09T08:02:18.602Z,78.69
2019-02-09T08:03:18.588Z,79.66
2019-02-09T08:04:18.571Z,79.14
2019-02-09T08:05:18.563Z,79.14
2019-02-09T08:06:18.561Z,78.83
2019-02-09T08:07:18.538Z,78.83
2019-02-09T08:08:18.521Z,79.55
2019-02-09T08:09:18.515Z,79.62
2019-02-09T08:10:18.507Z,77.97
2019-02-09T08:11:18.508Z,78.42
2019-02-09T08:12:18.476Z,78.73
2019-02-09T08:13:18.461Z,78.94
2019-02-09T08:14:18.462Z,79.66
2019-02-09T08:15:18.447Z,81.10
2019-02-09T08:16:18.451Z,88.18
2019-02-09T08:17:18.418Z,86.90
2019-02-09T08:18:18.410Z,84.80
2019-02-09T08:19:18.397Z,81.71
2019-02-09T08:20:18.390Z,81.61
2019-02-09T08:21:18.417Z,84.08
2019-02-09T08:22:18.360Z,82.54
2019-02-09T08:23:18.351Z,79.55
2019-02-09T08:24:18.342Z,78.72
2019-02-09T08:25:18.344Z,79.44
2019-02-09T08:26:18.320Z,79.58
2019-02-09T08:27:23.407Z,79.48
2019-02-09T08:28:19.298Z,79.69
2019-02-09T08:29:18.287Z,79.83
2019-02-09T08:30:19.284Z,80.14
2019-02-09T08:31:18.270Z,80.24
2019-02-09T08:32:18.302Z,80.24
2019-02-09T08:33:18.249Z,80.76
2019-02-09T08:34:18.222Z,80.55
2019-02-09T08:35:18.211Z,80.04
2019-02-09T08:36:18.199Z,80.55
2019-02-09T08:37:18.206Z,80.24
2019-02-09T08:38:18.178Z,80.44
2019-02-09T08:39:18.167Z,80.34
2019-02-09T08:40:18.155Z,80.24
2019-02-09T08:41:18.139Z,80.04
2019-02-09T08:42:18.148Z,80.04
2019-02-09T08:43:18.118Z,80.34
2019-02-09T08:44:18.109Z,80.10
2019-02-09T08:45:18.103Z,80.24
2019-02-09T08:46:18.093Z,79.79
2019-02-09T08:47:18.116Z,80.00
2019-02-09T08:48:18.060Z,79.69
2019-02-09T08:49:18.051Z,79.38
2019-02-09T08:50:18.041Z,79.38
2019-02-09T08:51:18.025Z,80.20
2019-02-09T08:52:18.015Z,80.51
2019-02-09T08:53:18.020Z,81.54
2019-02-09T08:54:17.996Z,82.37
2019-02-09T08:55:17.982Z,82.06
2019-02-09T08:56:17.971Z,79.55
2019-02-09T08:57:17.958Z,78.31
2019-02-09T08:58:17.967Z,78.72
2019-02-09T08:59:17.936Z,78.72
2019-02-09T09:00:17.934Z,78.52
2019-02-09T09:01:17.914Z,78.83
2019-02-09T09:02:20.587Z,78.62
2019-02-09T09:03:17.908Z,78.41
2019-02-09T09:04:17.899Z,78.41
2019-02-09T09:05:17.870Z,78.21
2019-02-09T09:06:17.860Z,78.00
2019-02-09T09:07:17.846Z,78.41
2019-02-09T09:08:17.852Z,78.31
2019-02-09T09:09:17.823Z,77.90
2019-02-09T09:10:17.823Z,77.80
2019-02-09T09:11:17.803Z,77.66
2019-02-09T09:12:17.820Z,77.66
2019-02-09T09:13:17.822Z,77.76
2019-02-09T09:14:17.774Z,77.66
2019-02-09T09:15:17.759Z,77.66
2019-02-09T09:16:17.828Z,77.66
2019-02-09T09:17:17.785Z,77.76
2019-02-09T09:18:17.968Z,77.66
2019-02-09T09:19:17.765Z,77.86
2019-02-09T09:20:17.765Z,77.93
2019-02-09T09:21:17.729Z,77.72
2019-02-09T09:22:17.676Z,76.79
2019-02-09T09:23:17.739Z,77.00
2019-02-09T09:24:17.680Z,77.00
2019-02-09T09:25:17.670Z,77.00
2019-02-09T09:26:17.650Z,76.79
2019-02-09T09:27:18.275Z,76.90
2019-02-09T09:28:17.646Z,76.79
2019-02-09T09:29:17.647Z,76.56
2019-02-09T09:30:17.652Z,76.28
2019-02-09T09:31:17.625Z,76.45
2019-02-09T09:32:17.594Z,76.56
2019-02-09T09:33:17.660Z,76.66
2019-02-09T09:34:17.606Z,76.52
2019-02-09T09:35:17.606Z,76.01
2019-02-09T09:36:17.551Z,75.80
2019-02-09T09:37:17.541Z,76.01
2019-02-09T09:38:17.581Z,76.59
2019-02-09T09:39:17.521Z,76.07
2019-02-09T09:40:17.486Z,75.56
2019-02-09T09:41:17.535Z,75.04
2019-02-09T09:42:17.483Z,74.33
2019-02-09T09:43:17.561Z,74.43
2019-02-09T09:44:17.534Z,74.70
2019-02-09T09:45:17.482Z,74.60
2019-02-09T09:46:17.434Z,75.73
2019-02-09T09:47:17.397Z,75.59
2019-02-09T09:48:17.416Z,75.59
2019-02-09T09:49:17.373Z,75.49
2019-02-09T09:50:17.360Z,77.10
2019-02-09T09:51:17.350Z,75.56
2019-02-09T09:52:17.336Z,75.42
2019-02-09T09:53:17.366Z,74.40
2019-02-09T09:54:17.324Z,74.57
2019-02-09T09:55:17.309Z,70.67
2019-02-09T09:56:17.303Z,70.05
2019-02-09T09:57:17.286Z,70.15
2019-02-09T09:58:17.277Z,70.29
2019-02-09T09:59:17.295Z,70.39
2019-02-09T10:00:17.285Z,72.24
2019-02-09T10:01:17.244Z,70.60
2019-02-09T10:02:17.223Z,70.26
2019-02-09T10:03:17.226Z,69.43
2019-02-09T10:04:17.226Z,69.33
2019-02-09T10:05:17.197Z,69.43
2019-02-09T10:06:17.184Z,70.12
2019-02-09T10:07:17.172Z,69.23
2019-02-09T10:08:17.164Z,68.72
2019-02-09T10:09:17.208Z,68.72
2019-02-09T10:10:17.137Z,69.02
2019-02-09T10:11:17.133Z,69.13
2019-02-09T10:12:17.121Z,68.41
2019-02-09T10:13:17.101Z,69.02
2019-02-09T10:14:17.121Z,69.54
2019-02-09T10:15:17.076Z,68.99
2019-02-09T10:16:17.078Z,68.00
2019-02-09T10:17:17.061Z,68.62
2019-02-09T10:18:17.045Z,67.76
2019-02-09T10:19:17.058Z,68.10
2019-02-09T10:20:17.025Z,68.82
2019-02-09T10:21:17.012Z,69.02
2019-02-09T10:22:16.998Z,67.35
2019-02-09T10:23:16.996Z,68.79
2019-02-09T10:24:17.021Z,68.89
2019-02-09T10:25:16.973Z,68.79
2019-02-09T10:26:16.957Z,68.27
2019-02-09T10:27:16.946Z,67.25
2019-02-09T10:28:16.929Z,67.25
2019-02-09T10:29:16.939Z,67.56
2019-02-09T10:30:16.910Z,67.35
2019-02-09T10:31:16.907Z,67.94
2019-02-09T10:32:16.895Z,67.02
2019-02-09T10:33:16.911Z,66.91
2019-02-09T10:34:16.889Z,65.68
2019-02-09T10:35:16.852Z,65.58
2019-02-09T10:36:16.845Z,65.37
2019-02-09T10:37:16.835Z,65.68
2019-02-09T10:38:16.832Z,65.65
2019-02-09T10:39:16.839Z,65.34
2019-02-09T10:40:16.825Z,64.73
2019-02-09T10:41:16.788Z,64.73
2019-02-09T10:42:16.773Z,65.14
2019-02-09T10:43:16.758Z,64.22
2019-02-09T10:44:16.749Z,64.62
2019-02-09T10:45:16.756Z,64.29
2019-02-09T10:46:16.730Z,64.60
2019-02-09T10:47:16.716Z,64.39
2019-02-09T10:48:16.702Z,63.88
2019-02-09T10:49:16.697Z,63.37
2019-02-09T10:50:16.700Z,64.39
2019-02-09T10:51:16.667Z,63.78
2019-02-09T10:52:16.657Z,63.54
2019-02-09T10:53:16.650Z,63.03
2019-02-09T10:54:16.637Z,62.73
2019-02-09T10:55:16.644Z,62.62
2019-02-09T10:56:16.613Z,62.80
2019-02-09T10:57:16.601Z,61.09
2019-02-09T10:58:16.592Z,61.29
2019-02-09T10:59:16.578Z,60.75
2019-02-09T11:00:16.583Z,61.26
2019-02-09T11:01:16.562Z,61.16
2019-02-09T11:02:16.540Z,60.35
2019-02-09T11:03:16.531Z,59.83
2019-02-09T11:04:16.518Z,59.53
2019-02-09T11:05:16.531Z,60.24
2019-02-09T11:06:16.517Z,59.53
2019-02-09T11:07:16.490Z,60.03
2019-02-09T11:08:16.473Z,60.31
2019-02-09T11:09:16.465Z,59.73
2019-02-09T11:10:16.464Z,59.42
2019-02-09T11:11:16.654Z,59.63
2019-02-09T11:12:16.426Z,59.42
2019-02-09T11:13:16.417Z,59.19
2019-02-09T11:14:16.404Z,58.78
2019-02-09T11:15:16.436Z,57.56
2019-02-09T11:16:16.386Z,57.97
2019-02-09T11:17:16.372Z,56.74
2019-02-09T11:18:16.358Z,57.15
2019-02-09T11:19:16.431Z,56.74
2019-02-09T11:20:16.368Z,56.63
2019-02-09T11:21:16.334Z,56.43
2019-02-09T11:22:16.580Z,56.33
2019-02-09T11:23:16.305Z,56.40
2019-02-09T11:24:16.290Z,55.18
2019-02-09T11:25:16.495Z,55.38
2019-02-09T11:26:16.404Z,56.33
2019-02-09T11:27:16.269Z,56.63
2019-02-09T11:28:16.362Z,56.12
2019-02-09T11:29:16.238Z,54.18
2019-02-09T11:30:16.266Z,54.80
2019-02-09T11:31:16.228Z,55.62
2019-02-09T11:32:16.205Z,56.33
2019-02-09T11:33:16.185Z,56.23
2019-02-09T11:34:16.174Z,56.02
2019-02-09T11:35:16.203Z,56.33
2019-02-09T11:36:16.158Z,56.23
2019-02-09T11:37:16.153Z,56.53
2019-02-09T11:38:16.139Z,56.12
2019-02-09T11:39:16.128Z,59.47
2019-02-09T11:40:16.112Z,58.14
2019-02-09T11:41:16.123Z,57.73
2019-02-09T11:42:16.141Z,56.10
2019-02-09T11:43:16.088Z,55.58
2019-02-09T11:44:16.080Z,55.79
2019-02-09T11:45:16.054Z,55.38
2019-02-09T11:46:16.063Z,55.89
2019-02-09T11:47:16.035Z,55.99
2019-02-09T11:48:16.024Z,55.56
2019-02-09T11:49:16.283Z,54.44
2019-02-09T11:50:16.014Z,55.18
2019-02-09T11:51:16.009Z,55.69
2019-02-09T11:52:15.977Z,54.23
2019-02-09T11:53:15.973Z,53.75
2019-02-09T11:54:15.985Z,55.99
2019-02-09T11:55:16.069Z,54.54
2019-02-09T11:56:15.958Z,54.05
2019-02-09T11:57:15.926Z,54.16
2019-02-09T11:58:16.361Z,53.95
2019-02-09T11:59:15.900Z,54.05
2019-02-09T12:00:15.888Z,54.16
2019-02-09T12:01:17.122Z,53.34
2019-02-09T12:02:15.894Z,53.85
2019-02-09T12:03:16.432Z,53.34
2019-02-09T12:04:15.850Z,54.05
2019-02-09T12:05:15.831Z,53.54
2019-02-09T12:06:15.840Z,54.05
2019-02-09T12:07:15.810Z,53.75
2019-02-09T12:08:15.798Z,54.26
2019-02-09T12:09:15.788Z,54.16
2019-02-09T12:10:15.772Z,54.16
2019-02-09T12:11:15.804Z,53.54
2019-02-09T12:12:15.780Z,54.16
2019-02-09T12:13:15.747Z,54.54
2019-02-09T12:14:15.734Z,53.92
2019-02-09T12:15:15.724Z,53.83
2019-02-09T12:16:15.770Z,53.21
2019-02-09T12:17:15.877Z,53.42
2019-02-09T12:18:15.687Z,53.83
2019-02-09T12:19:15.771Z,52.70
2019-02-09T12:20:15.670Z,52.60
2019-02-09T12:21:15.652Z,51.40
2019-02-09T12:22:15.674Z,52.29
2019-02-09T12:23:15.635Z,52.39
2019-02-09T12:24:15.626Z,52.70
2019-02-09T12:25:15.624Z,52.60
2019-02-09T12:26:15.594Z,52.50
2019-02-09T12:27:15.640Z,52.09
2019-02-09T12:28:15.574Z,53.21
2019-02-09T12:29:15.561Z,52.70
2019-02-09T12:30:15.553Z,52.93
2019-02-09T12:31:15.658Z,53.21
2019-02-09T12:32:15.549Z,53.44
2019-02-09T12:33:22.783Z,55.87
2019-02-09T12:34:16.505Z,55.49
2019-02-09T12:35:15.496Z,55.69
2019-02-09T12:36:15.529Z,56.20
2019-02-09T12:37:15.497Z,56.40
2019-02-09T12:38:15.465Z,57.73
2019-02-09T12:39:15.449Z,58.17
2019-02-09T12:40:15.440Z,57.86
2019-02-09T12:41:15.433Z,58.07
2019-02-09T12:42:15.435Z,57.15
2019-02-09T12:43:15.410Z,57.76
2019-02-09T12:44:15.395Z,57.97
2019-02-09T12:45:15.390Z,58.70
2019-02-09T12:46:15.375Z,56.97
2019-02-09T12:47:15.381Z,56.12
2019-02-09T12:48:15.360Z,56.97
2019-02-09T12:49:15.338Z,57.38
2019-02-09T12:50:15.329Z,58.27
2019-02-09T12:51:15.340Z,59.01
2019-02-09T12:52:15.320Z,57.35